Time;durP1;ratioP1;P1;durP2;ratioP2;P2;SDS_P1;SDS_P2;PMS_P1;PMS_P2;Temp;Humidity;BMP_temperature;BMP_pressure;BME280_temperature;BME280_humidity;BME280_pressure;Samples;Min_cycle;Max_cycle;Signal;HPM_P1;HPM_P2
2021/11/14 00:02:21;;;;;;;81.82;50.22;;;231.00;1817.60;;;;;;4899219;29;20021;-57
2021/11/14 00:04:47;;;;;;;85.72;50.25;;;231.00;1817.60;;;;;;4899386;29;20040;-56
2021/11/14 00:07:15;;;;;;;81.97;49.10;;;231.00;1817.60;;;;;;4899582;29;20021;-57
2021/11/14 00:09:41;;;;;;;78.80;47.78;;;231.00;1817.60;;;;;;4899394;29;20048;-57
2021/11/14 00:12:07;;;;;;;74.00;45.45;;;230.90;1817.60;;;;;;4899701;29;20467;-56
2021/11/14 00:14:33;;;;;;;81.25;47.72;;;230.90;1817.60;;;;;;4899505;29;20017;-57
2021/11/14 00:16:59;;;;;;;77.20;47.33;;;230.90;1817.60;;;;;;4882342;29;20036;-57
2021/11/14 00:19:24;;;;;;;70.38;45.13;;;230.90;1817.60;;;;;;4899055;29;20020;-57
2021/11/14 00:21:51;;;;;;;66.03;42.10;;;230.90;1817.60;;;;;;4900014;29;20076;-57
2021/11/14 00:24:17;;;;;;;68.55;43.35;;;230.90;1817.60;;;;;;4900139;29;20089;-57
2021/11/14 00:26:43;;;;;;;63.72;39.58;;;230.90;1817.60;;;;;;4900272;29;20035;-57
2021/11/14 00:29:10;;;;;;;65.05;40.25;;;230.90;1817.60;;;;;;4899716;29;20055;-57
2021/11/14 00:31:37;;;;;;;64.72;40.33;;;230.80;1817.60;;;;;;4899965;29;20467;-58
2021/11/14 00:34:07;;;;;;;57.80;37.42;;;230.80;1817.60;;;;;;4899793;29;20543;-57
2021/11/14 00:36:39;;;;;;;61.45;39.75;;;230.80;1817.60;;;;;;4900014;29;20506;-57
2021/11/14 00:39:09;;;;;;;63.28;38.22;;;230.80;1817.60;;;;;;4900476;29;20355;-57
2021/11/14 00:41:35;;;;;;;61.97;38.15;;;230.80;1817.60;;;;;;4899612;29;20124;-57
2021/11/14 00:44:01;;;;;;;54.70;36.28;;;230.80;1817.60;;;;;;4899758;29;20033;-57
2021/11/14 00:46:26;;;;;;;60.85;38.17;;;230.70;1817.60;;;;;;4899345;29;20096;-57
2021/11/14 00:48:53;;;;;;;55.45;35.03;;;230.70;1817.60;;;;;;4899816;29;20032;-57
2021/11/14 00:51:25;;;;;;;56.65;35.53;;;230.70;1817.60;;;;;;4899761;29;20036;-57
2021/11/14 00:53:51;;;;;;;58.00;36.03;;;230.70;1817.60;;;;;;4899669;29;20059;-57
2021/11/14 00:56:17;;;;;;;59.85;36.10;;;230.70;1817.60;;;;;;4899108;29;20080;-57
2021/11/14 00:58:43;;;;;;;52.50;35.55;;;230.70;1817.60;;;;;;4899501;29;20064;-57
2021/11/14 01:01:09;;;;;;;52.42;34.90;;;230.70;1817.60;;;;;;4899414;29;20048;-57
2021/11/14 01:03:35;;;;;;;50.55;34.20;;;230.60;1817.60;;;;;;4899313;29;20035;-57
2021/11/14 01:06:01;;;;;;;52.47;34.88;;;230.60;1817.60;;;;;;4899487;29;20029;-57
2021/11/14 01:08:28;;;;;;;51.28;34.70;;;230.60;1817.60;;;;;;4899475;29;20405;-57
2021/11/14 01:10:56;;;;;;;56.65;35.63;;;230.60;1817.60;;;;;;4899525;29;20047;-57
2021/11/14 01:13:23;;;;;;;57.35;37.28;;;230.60;1817.60;;;;;;4899223;29;20025;-57
2021/11/14 01:15:50;;;;;;;59.70;36.80;;;230.60;1817.60;;;;;;4899135;29;20029;-57
2021/11/14 01:18:19;;;;;;;51.17;33.70;;;230.50;1817.60;;;;;;4899133;29;20028;-57
2021/11/14 01:20:47;;;;;;;51.47;33.92;;;230.40;1843.20;;;;;;4898893;29;20043;-57
2021/11/14 01:23:16;;;;;;;50.65;33.15;;;230.50;1843.20;;;;;;4882412;29;20036;-57
2021/11/14 01:25:42;;;;;;;52.80;33.60;;;230.50;1843.20;;;;;;4899202;29;20479;-57
2021/11/14 01:28:08;;;;;;;49.33;33.75;;;230.50;1843.20;;;;;;4898666;29;20582;-57
2021/11/14 01:30:36;;;;;;;48.20;32.97;;;230.60;1817.60;;;;;;4899146;29;20032;-57
2021/11/14 01:33:04;;;;;;;50.50;32.35;;;230.50;1817.60;;;;;;4898774;29;20033;-57
2021/11/14 01:35:30;;;;;;;44.72;31.63;;;230.50;1843.20;;;;;;4899005;29;20534;-57
2021/11/14 01:37:57;;;;;;;48.58;32.53;;;230.50;1817.60;;;;;;4899157;29;20115;-57
2021/11/14 01:40:36;;;;;;;53.72;34.65;;;230.60;1817.60;;;;;;4898744;29;20379;-57
2021/11/14 01:43:03;;;;;;;50.42;33.75;;;230.50;1817.60;;;;;;4898532;29;20056;-57
2021/11/14 01:45:29;;;;;;;53.83;34.42;;;230.50;1817.60;;;;;;4898720;29;20025;-57
2021/11/14 01:47:55;;;;;;;58.60;39.92;;;230.60;1817.60;;;;;;4898800;29;20040;-57
2021/11/14 01:50:21;;;;;;;61.67;38.47;;;230.60;1817.60;;;;;;4898731;29;20483;-57
2021/11/14 01:52:49;;;;;;;67.57;40.42;;;230.60;1817.60;;;;;;4898606;29;20053;-57
2021/11/14 01:55:21;;;;;;;72.72;40.60;;;230.60;1817.60;;;;;;4898760;29;20044;-57
2021/11/14 01:57:47;;;;;;;69.65;39.63;;;230.60;1817.60;;;;;;4898374;29;20108;-57
2021/11/14 02:00:20;;;;;;;67.90;40.15;;;230.60;1817.60;;;;;;4898581;29;20077;-57
2021/11/14 02:02:46;;;;;;;60.75;38.70;;;230.60;1817.60;;;;;;4881953;29;20044;-57
2021/11/14 02:05:12;;;;;;;62.65;39.40;;;230.50;1817.60;;;;;;4898579;29;20087;-57
2021/11/14 02:07:38;;;;;;;58.22;37.55;;;230.40;1843.20;;;;;;4898466;29;20044;-57
2021/11/14 02:10:06;;;;;;;59.10;38.30;;;230.40;1843.20;;;;;;4881238;29;20033;-57
2021/11/14 02:12:33;;;;;;;59.38;36.60;;;205.70;1843.20;;;;;;4898261;29;20025;-57
2021/11/14 02:14:58;;;;;;;56.63;36.35;;;205.60;1868.80;;;;;;4898688;29;20063;-57
2021/11/14 02:17:24;;;;;;;55.53;34.35;;;205.60;1868.80;;;;;;4898453;29;20052;-57
2021/11/14 02:19:51;;;;;;;53.88;35.05;;;205.60;1868.80;;;;;;4898578;29;20408;-56
2021/11/14 02:22:18;;;;;;;52.75;33.70;;;205.50;1868.80;;;;;;4898099;29;20092;-57
2021/11/14 02:24:44;;;;;;;51.47;33.22;;;205.50;1868.80;;;;;;4898082;29;20428;-57
2021/11/14 02:27:11;;;;;;;49.40;33.30;;;205.60;1868.80;;;;;;4898285;29;20158;-57
2021/11/14 02:29:37;;;;;;;51.67;34.38;;;205.60;1868.80;;;;;;4881389;29;20044;-57
2021/11/14 02:32:03;;;;;;;53.45;32.92;;;205.60;1868.80;;;;;;4898344;29;20029;-57
2021/11/14 02:34:28;;;;;;;52.55;33.38;;;205.60;1843.20;;;;;;4898301;29;20025;-57
2021/11/14 02:36:54;;;;;;;51.35;32.33;;;205.60;1868.80;;;;;;4898134;29;20377;-57
2021/11/14 02:39:20;;;;;;;55.13;35.30;;;205.60;1868.80;;;;;;4898302;29;20035;-57
2021/11/14 02:41:46;;;;;;;49.53;33.97;;;205.50;1868.80;;;;;;4898247;29;20061;-57
2021/11/14 02:44:13;;;;;;;47.70;32.53;;;205.60;1843.20;;;;;;4898360;29;20363;-57
2021/11/14 02:46:38;;;;;;;52.78;32.35;;;205.60;1843.20;;;;;;4898412;29;20061;-57
2021/11/14 02:49:05;;;;;;;47.78;32.25;;;205.50;1868.80;;;;;;4898909;29;20104;-57
2021/11/14 02:51:31;;;;;;;48.42;32.63;;;205.60;1843.20;;;;;;4898012;29;20044;-57
2021/11/14 02:53:57;;;;;;;49.38;32.97;;;205.50;1843.20;;;;;;4898066;29;20059;-57
2021/11/14 02:56:24;;;;;;;54.65;33.00;;;205.60;1868.80;;;;;;4898002;29;20104;-57
2021/11/14 02:58:50;;;;;;;50.80;33.50;;;205.60;1868.80;;;;;;4898191;29;20068;-57
2021/11/14 03:01:32;;;;;;;52.35;32.20;;;205.60;1868.80;;;;;;4897846;29;20039;-57
2021/11/14 03:03:59;;;;;;;48.85;31.67;;;205.60;1868.80;;;;;;4898120;29;20039;-57
2021/11/14 03:06:27;;;;;;;47.83;33.13;;;205.60;1868.80;;;;;;4898229;29;20363;-57
2021/11/14 03:08:53;;;;;;;51.25;32.28;;;205.60;1868.80;;;;;;4897937;29;20044;-57
2021/11/14 03:11:19;;;;;;;48.97;33.10;;;205.60;1868.80;;;;;;4898063;29;20028;-57
2021/11/14 03:13:45;;;;;;;48.13;30.75;;;205.60;1868.80;;;;;;4897865;29;20498;-57
2021/11/14 03:16:20;;;;;;;44.38;29.98;;;205.70;1868.80;;;;;;4898011;29;20032;-57
2021/11/14 03:18:46;;;;;;;46.30;29.63;;;205.70;1868.80;;;;;;4899797;29;20496;-57
2021/11/14 03:21:12;;;;;;;48.40;31.02;;;230.40;1868.80;;;;;;4900808;29;20555;-57
2021/11/14 03:23:38;;;;;;;46.35;32.00;;;230.40;1868.80;;;;;;4900992;29;20116;-57
2021/11/14 03:26:04;;;;;;;42.90;29.52;;;230.40;1868.80;;;;;;4900656;29;20036;-57
2021/11/14 03:28:31;;;;;;;48.70;30.52;;;230.40;1868.80;;;;;;4901057;29;20088;-57
2021/11/14 03:30:58;;;;;;;46.22;29.73;;;230.50;1868.80;;;;;;4901043;29;20085;-57
2021/11/14 03:33:26;;;;;;;43.95;29.40;;;230.50;1868.80;;;;;;4901094;29;20029;-57
2021/11/14 03:35:54;;;;;;;43.67;29.90;;;230.50;1868.80;;;;;;4900889;29;20029;-57
2021/11/14 03:38:26;;;;;;;44.15;29.25;;;230.60;1868.80;;;;;;4900985;29;20028;-57
2021/11/14 03:40:52;;;;;;;45.92;28.90;;;230.60;1868.80;;;;;;4901469;29;20039;-57
2021/11/14 03:43:18;;;;;;;46.78;27.67;;;230.60;1868.80;;;;;;4900798;29;20068;-57
2021/11/14 03:45:44;;;;;;;42.30;28.15;;;230.70;1868.80;;;;;;4900722;29;20040;-57
2021/11/14 03:48:10;;;;;;;40.08;26.98;;;230.70;1868.80;;;;;;4883614;29;20375;-57
2021/11/14 03:50:36;;;;;;;43.22;28.85;;;230.70;1868.80;;;;;;4900603;29;20033;-57
2021/11/14 03:53:04;;;;;;;45.20;28.95;;;230.70;1868.80;;;;;;4900866;29;20471;-57
2021/11/14 03:55:30;;;;;;;49.13;29.95;;;230.80;1868.80;;;;;;4900640;29;20360;-57
2021/11/14 03:57:56;;;;;;;44.42;28.63;;;230.80;1868.80;;;;;;4900548;29;20080;-57
2021/11/14 04:00:25;;;;;;;44.28;28.42;;;230.80;1868.80;;;;;;4883493;29;20040;-57
2021/11/14 04:02:53;;;;;;;43.13;28.40;;;230.80;1868.80;;;;;;4900686;29;20517;-57
2021/11/14 04:05:20;;;;;;;43.92;28.27;;;230.90;1868.80;;;;;;4900509;29;20039;-57
2021/11/14 04:07:46;;;;;;;46.28;29.65;;;230.90;1868.80;;;;;;4900432;29;20036;-57
2021/11/14 04:10:12;;;;;;;45.83;29.30;;;230.90;1868.80;;;;;;4900584;29;20029;-57
2021/11/14 04:12:39;;;;;;;42.80;27.40;;;231.00;1843.20;;;;;;4900367;29;20120;-57
2021/11/14 04:15:10;;;;;;;44.40;28.05;;;231.00;1868.80;;;;;;4900278;29;20048;-57
2021/11/14 04:17:36;;;;;;;42.38;27.55;;;231.00;1843.20;;;;;;4900348;29;20487;-57
2021/11/14 04:20:08;;;;;;;44.55;27.35;;;231.00;1843.20;;;;;;4900338;29;20447;-57
2021/11/14 04:22:34;;;;;;;42.47;28.05;;;231.00;1868.80;;;;;;4899984;29;20060;-57
2021/11/14 04:24:59;;;;;;;42.33;26.98;;;231.00;1868.80;;;;;;4900102;29;20103;-57
2021/11/14 04:27:25;;;;;;;44.85;28.17;;;231.00;1868.80;;;;;;4900230;29;20029;-58
2021/11/14 04:29:51;;;;;;;49.67;30.08;;;231.00;1868.80;;;;;;4899067;29;20028;-57
2021/11/14 04:32:17;;;;;;;43.38;28.55;;;231.00;1868.80;;;;;;4900050;29;20069;-57
2021/11/14 04:34:43;;;;;;;42.40;28.38;;;231.00;1868.80;;;;;;4900495;29;20073;-57
2021/11/14 04:37:08;;;;;;;47.83;28.75;;;231.00;1868.80;;;;;;4900090;29;20036;-57
2021/11/14 04:39:34;;;;;;;42.50;28.50;;;231.00;1868.80;;;;;;4900116;29;20123;-57
2021/11/14 04:42:03;;;;;;;46.50;28.70;;;231.00;1868.80;;;;;;4899979;29;20113;-57
2021/11/14 04:44:29;;;;;;;44.55;29.63;;;231.10;1843.20;;;;;;4899744;29;20032;-57
2021/11/14 04:46:55;;;;;;;43.58;28.05;;;231.10;1843.20;;;;;;4899956;29;20499;-57
2021/11/14 04:49:21;;;;;;;43.92;29.75;;;231.10;1843.20;;;;;;4882809;29;20084;-57
2021/11/14 04:51:51;;;;;;;42.20;27.73;;;231.10;1843.20;;;;;;4899663;29;20060;-57
2021/11/14 04:54:18;;;;;;;49.25;29.48;;;231.10;1843.20;;;;;;4899609;29;20097;-57
2021/11/14 04:56:45;;;;;;;43.40;29.15;;;231.00;1843.20;;;;;;4899678;29;20104;-57
2021/11/14 04:59:11;;;;;;;47.10;29.63;;;231.00;1843.20;;;;;;4899448;29;20051;-57
2021/11/14 05:01:38;;;;;;;43.63;28.35;;;231.00;1843.20;;;;;;4899554;29;20040;-57
2021/11/14 05:04:04;;;;;;;45.83;28.83;;;231.10;1843.20;;;;;;4899452;29;20455;-57
2021/11/14 05:06:31;;;;;;;44.05;29.40;;;231.10;1843.20;;;;;;4899538;29;20038;-57
2021/11/14 05:08:57;;;;;;;47.42;29.25;;;231.00;1843.20;;;;;;4899465;29;20033;-57
2021/11/14 05:11:23;;;;;;;50.35;29.45;;;231.00;1843.20;;;;;;4899429;29;20048;-57
2021/11/14 05:13:49;;;;;;;49.13;29.65;;;231.00;1843.20;;;;;;4899189;29;20052;-57
2021/11/14 05:16:15;;;;;;;44.55;29.30;;;231.00;1843.20;;;;;;4899368;29;20379;-57
2021/11/14 05:18:40;;;;;;;43.28;27.48;;;231.00;1843.20;;;;;;4899039;29;20371;-57
2021/11/14 05:21:07;;;;;;;42.78;27.80;;;231.00;1843.20;;;;;;4898889;29;20088;-57
2021/11/14 05:23:34;;;;;;;44.47;28.20;;;231.00;1843.20;;;;;;4899039;29;20044;-57
2021/11/14 05:26:00;;;;;;;47.08;27.77;;;231.00;1843.20;;;;;;4882063;29;20040;-57
2021/11/14 05:28:26;;;;;;;45.72;28.15;;;231.00;1843.20;;;;;;4882152;29;20478;-57
2021/11/14 05:30:51;;;;;;;46.72;28.20;;;231.00;1843.20;;;;;;4898716;29;20032;-57
2021/11/14 05:33:17;;;;;;;46.85;28.02;;;231.00;1843.20;;;;;;4898994;29;20404;-57
2021/11/14 05:35:44;;;;;;;50.42;30.75;;;231.00;1843.20;;;;;;4898892;29;20040;-57
2021/11/14 05:38:10;;;;;;;46.92;28.63;;;231.00;1843.20;;;;;;4898872;29;20029;-57
2021/11/14 05:40:36;;;;;;;52.90;30.40;;;231.00;1843.20;;;;;;4898446;29;20428;-57
2021/11/14 05:43:02;;;;;;;44.47;27.83;;;231.00;1843.20;;;;;;4898763;29;20028;-57
2021/11/14 05:45:28;;;;;;;46.83;30.15;;;231.00;1843.20;;;;;;4898601;29;20509;-57
2021/11/14 05:47:55;;;;;;;42.65;27.45;;;231.00;1843.20;;;;;;4898603;29;20113;-57
2021/11/14 05:50:21;;;;;;;45.25;28.33;;;231.00;1843.20;;;;;;4898610;29;20024;-57
2021/11/14 05:52:47;;;;;;;44.67;27.17;;;230.90;1843.20;;;;;;4898596;29;20412;-57
2021/11/14 05:55:13;;;;;;;42.67;27.08;;;231.00;1843.20;;;;;;4898752;29;20035;-57
2021/11/14 05:57:49;;;;;;;43.47;27.25;;;231.00;1843.20;;;;;;4898253;29;20056;-57
2021/11/14 06:00:22;;;;;;;41.65;24.98;;;230.90;1843.20;;;;;;4898458;29;20056;-57
2021/11/14 06:03:00;;;;;;;43.95;25.70;;;230.90;1843.20;;;;;;4898375;29;20494;-57
2021/11/14 06:05:28;;;;;;;48.45;27.40;;;230.90;1843.20;;;;;;4898769;29;20021;-57
2021/11/14 06:07:54;;;;;;;42.97;26.17;;;230.90;1843.20;;;;;;4898460;29;20032;-57
2021/11/14 06:10:20;;;;;;;42.65;25.85;;;231.00;1843.20;;;;;;4898410;29;20479;-57
2021/11/14 06:12:47;;;;;;;43.45;26.02;;;231.00;1843.20;;;;;;4898356;29;20506;-57
2021/11/14 06:15:19;;;;;;;40.38;25.90;;;231.00;1843.20;;;;;;4898543;29;20056;-57
2021/11/14 06:17:46;;;;;;;44.25;26.35;;;231.00;1843.20;;;;;;4898374;29;20025;-57
2021/11/14 06:20:12;;;;;;;48.63;28.67;;;231.00;1843.20;;;;;;4881581;29;20056;-57
2021/11/14 06:22:38;;;;;;;53.35;30.38;;;231.00;1843.20;;;;;;4898295;29;20052;-57
2021/11/14 06:25:05;;;;;;;54.78;30.60;;;231.00;1843.20;;;;;;4898058;29;20463;-57
2021/11/14 06:27:31;;;;;;;48.83;29.13;;;231.00;1843.20;;;;;;4898428;29;20029;-57
2021/11/14 06:29:57;;;;;;;48.42;27.38;;;231.00;1843.20;;;;;;4898357;29;20105;-57
2021/11/14 06:32:23;;;;;;;53.00;28.88;;;231.00;1843.20;;;;;;4898428;29;20535;-57
2021/11/14 06:34:48;;;;;;;50.90;29.38;;;231.00;1843.20;;;;;;4898251;29;20035;-57
2021/11/14 06:37:14;;;;;;;59.33;31.23;;;231.00;1843.20;;;;;;4898428;29;20059;-57
2021/11/14 06:39:40;;;;;;;52.63;30.58;;;231.00;1843.20;;;;;;4897693;29;20390;-57
2021/11/14 06:42:07;;;;;;;48.95;28.63;;;231.10;1843.20;;;;;;4881343;29;20051;-57
2021/11/14 06:44:34;;;;;;;54.30;30.08;;;231.10;1843.20;;;;;;4898122;29;20035;-57
2021/11/14 06:47:00;;;;;;;45.35;27.33;;;231.10;1843.20;;;;;;4898101;29;20029;-57
2021/11/14 06:49:26;;;;;;;50.50;29.35;;;231.10;1843.20;;;;;;4898214;29;20085;-57
2021/11/14 06:51:52;;;;;;;50.25;28.02;;;231.10;1843.20;;;;;;4898096;29;20420;-57
2021/11/14 06:54:17;;;;;;;47.88;25.70;;;231.10;1843.20;;;;;;4901133;29;20036;-57
2021/11/14 06:56:43;;;;;;;48.28;27.77;;;231.10;1868.80;;;;;;4901795;29;20028;-57
2021/11/14 06:59:09;;;;;;;43.78;25.77;;;231.10;1843.20;;;;;;4901529;29;20024;-57
2021/11/14 07:01:35;;;;;;;45.42;27.42;;;231.10;1868.80;;;;;;4902028;29;20178;-57
2021/11/14 07:04:02;;;;;;;46.08;26.95;;;231.10;1868.80;;;;;;4901473;29;20031;-57
2021/11/14 07:06:28;;;;;;;41.55;26.35;;;231.10;1868.80;;;;;;4901547;29;20032;-57
2021/11/14 07:08:53;;;;;;;50.47;28.25;;;231.10;1868.80;;;;;;4901586;29;20387;-57
2021/11/14 07:11:19;;;;;;;49.03;28.40;;;231.20;1868.80;;;;;;4901829;29;20427;-57
2021/11/14 07:13:46;;;;;;;47.65;28.83;;;231.10;1868.80;;;;;;4900880;29;20040;-57
2021/11/14 07:16:12;;;;;;;48.85;29.55;;;231.20;1868.80;;;;;;4901276;29;20035;-57
2021/11/14 07:18:38;;;;;;;49.67;29.17;;;231.30;1868.80;;;;;;4901311;29;20036;-57
2021/11/14 07:21:04;;;;;;;53.10;30.08;;;231.30;1868.80;;;;;;4901028;29;20116;-58
2021/11/14 07:23:30;;;;;;;48.25;29.92;;;231.30;1868.80;;;;;;4901361;29;20037;-56
2021/11/14 07:25:56;;;;;;;44.25;26.83;;;256.00;1868.80;;;;;;4884401;29;20391;-57
2021/11/14 07:28:21;;;;;;;48.15;27.55;;;256.00;1868.80;;;;;;4899342;29;20080;-57
2021/11/14 07:30:47;;;;;;;40.80;25.60;;;256.00;1868.80;;;;;;4899663;29;20447;-57
2021/11/14 07:33:13;;;;;;;41.05;25.92;;;256.00;1868.80;;;;;;4899334;29;20527;-58
2021/11/14 07:35:39;;;;;;;41.88;24.08;;;256.10;1868.80;;;;;;4899681;29;20104;-57
2021/11/14 07:38:05;;;;;;;39.90;24.67;;;256.10;1843.20;;;;;;4899482;29;20372;-57
2021/11/14 07:40:31;;;;;;;39.28;25.70;;;256.20;1843.20;;;;;;4899106;29;20032;-57
2021/11/14 07:42:58;;;;;;;41.30;25.48;;;256.20;1868.80;;;;;;4899141;29;20035;-57
2021/11/14 07:45:25;;;;;;;43.10;26.42;;;256.20;1868.80;;;;;;4899201;29;20025;-58
2021/11/14 07:47:53;;;;;;;38.92;24.63;;;256.30;1868.80;;;;;;4900104;29;20029;-57
2021/11/14 07:50:21;;;;;;;40.45;25.77;;;256.30;1868.80;;;;;;4898906;29;20032;-57
2021/11/14 07:52:47;;;;;;;39.20;26.73;;;256.40;1868.80;;;;;;4899168;29;20037;-58
2021/11/14 07:55:12;;;;;;;38.75;24.15;;;256.50;1894.40;;;;;;4899089;29;20379;-57
2021/11/14 07:57:43;;;;;;;34.55;22.52;;;256.60;1868.80;;;;;;4898722;29;20052;-57
2021/11/14 08:00:15;;;;;;;35.60;22.25;;;256.60;1894.40;;;;;;4898780;29;20081;-57
2021/11/14 08:02:41;;;;;;;35.38;22.58;;;256.60;1894.40;;;;;;4898859;29;20032;-57
2021/11/14 08:05:07;;;;;;;33.85;22.70;;;256.70;1868.80;;;;;;4898877;29;20128;-57
2021/11/14 08:07:33;;;;;;;33.08;20.65;;;256.80;1894.40;;;;;;4896120;29;20383;-56
2021/11/14 08:09:59;;;;;;;36.85;22.27;;;256.80;1894.40;;;;;;4898587;29;20020;-57
2021/11/14 08:12:24;;;;;;;33.10;20.77;;;256.90;1894.40;;;;;;4898945;29;20024;-56
2021/11/14 08:14:50;;;;;;;38.38;22.02;;;281.60;1920.00;;;;;;4898741;29;20021;-59
2021/11/14 08:17:16;;;;;;;36.25;21.23;;;281.60;1920.00;;;;;;4881870;29;20052;-60
2021/11/14 08:19:43;;;;;;;31.20;21.20;;;281.60;1920.00;;;;;;4898830;29;20348;-59
2021/11/14 08:22:09;;;;;;;29.50;19.38;;;281.70;1920.00;;;;;;4897141;29;20048;-60
2021/11/14 08:24:34;;;;;;;32.58;20.15;;;281.80;1920.00;;;;;;4899082;29;20485;-59
2021/11/14 08:27:00;;;;;;;29.80;19.80;;;281.80;1894.40;;;;;;4897644;29;20036;-58
2021/11/14 08:29:26;;;;;;;30.02;20.70;;;282.00;1894.40;;;;;;4897297;29;20043;-59
2021/11/14 08:31:52;;;;;;;27.30;18.52;;;282.00;1894.40;;;;;;4898125;29;20371;-59
2021/11/14 08:34:18;;;;;;;28.30;18.17;;;282.10;1894.40;;;;;;4898251;29;20067;-60
2021/11/14 08:36:43;;;;;;;31.55;18.05;;;282.20;1868.80;;;;;;4898399;29;20040;-59
2021/11/14 08:39:09;;;;;;;24.38;16.63;;;282.30;1868.80;;;;;;4897897;29;20439;-59
2021/11/14 08:41:35;;;;;;;26.58;15.88;;;282.40;1868.80;;;;;;4895634;29;20498;-63
2021/11/14 08:44:01;;;;;;;38.42;16.52;;;282.50;1843.20;;;;;;4898141;29;20044;-63
2021/11/14 08:46:27;;;;;;;32.83;17.85;;;307.30;1843.20;;;;;;4897707;29;20099;-59
2021/11/14 08:48:53;;;;;;;28.20;15.13;;;307.40;1868.80;;;;;;4897852;29;20484;-59
2021/11/14 08:51:20;;;;;;;24.27;15.52;;;307.50;1843.20;;;;;;4897967;29;20028;-59
2021/11/14 08:53:47;;;;;;;29.02;18.30;;;307.50;1817.60;;;;;;4897997;29;20109;-59
2021/11/14 08:56:13;;;;;;;41.03;25.77;;;307.60;1817.60;;;;;;4897925;29;20020;-60
2021/11/14 08:58:40;;;;;;;27.63;17.05;;;307.70;1792.00;;;;;;4898063;29;20039;-61
2021/11/14 09:01:09;;;;;;;51.45;20.10;;;307.70;1792.00;;;;;;4881397;29;20487;-62
2021/11/14 09:03:34;;;;;;;55.08;19.58;;;307.80;1766.40;;;;;;4897791;29;20016;-62
2021/11/14 09:06:00;;;;;;;37.72;17.05;;;307.90;1766.40;;;;;;4897784;29;20555;-63
2021/11/14 09:08:27;;;;;;;34.33;15.90;;;308.00;1766.40;;;;;;4897795;29;20103;-63
2021/11/14 09:10:53;;;;;;;40.58;17.83;;;308.10;1740.80;;;;;;4897082;29;20107;-62
2021/11/14 09:13:19;;;;;;;29.27;15.07;;;332.80;1766.40;;;;;;4897695;29;20111;-61
2021/11/14 09:15:45;;;;;;;41.15;16.38;;;332.90;1766.40;;;;;;4896992;29;20028;-62
2021/11/14 09:18:11;;;;;;;48.60;22.20;;;332.90;1766.40;;;;;;4897654;29;20021;-62
2021/11/14 09:20:37;;;;;;;44.05;20.63;;;333.00;1766.40;;;;;;4897324;29;20107;-63
2021/11/14 09:23:03;;;;;;;47.85;22.60;;;333.10;1766.40;;;;;;4897278;29;20491;-62
2021/11/14 09:25:29;;;;;;;58.85;24.40;;;333.20;1740.80;;;;;;4897557;29;20025;-60
2021/11/14 09:27:55;;;;;;;33.28;18.73;;;333.30;1740.80;;;;;;4895190;29;20159;-59
2021/11/14 09:30:22;;;;;;;34.95;17.60;;;333.30;1740.80;;;;;;4897070;29;20367;-60
2021/11/14 09:32:48;;;;;;;22.63;14.50;;;333.40;1715.20;;;;;;4897328;29;20029;-59
2021/11/14 09:35:15;;;;;;;25.45;18.42;;;333.50;1689.60;;;;;;4897236;29;20476;-60
2021/11/14 09:37:41;;;;;;;19.30;13.45;;;333.50;1715.20;;;;;;4896613;29;20029;-62
2021/11/14 09:40:09;;;;;;;26.05;16.45;;;333.60;1689.60;;;;;;4896968;29;20035;-64
2021/11/14 09:42:36;;;;;;;255.90;37.35;;;333.70;1689.60;;;;;;4880039;29;20061;-63
2021/11/14 09:45:05;;;;;;;158.68;27.83;;;333.70;1689.60;;;;;;4897245;29;20017;-62
2021/11/14 09:47:32;;;;;;;117.85;23.15;;;358.40;1664.00;;;;;;4896547;29;20048;-65
2021/11/14 09:49:58;;;;;;;77.22;19.13;;;358.40;1689.60;;;;;;4897221;29;20039;-61
2021/11/14 09:52:25;;;;;;;29.77;13.25;;;358.50;1689.60;;;;;;4896956;29;20076;-59
2021/11/14 09:54:52;;;;;;;19.88;11.82;;;358.60;1664.00;;;;;;4896390;29;20048;-59
2021/11/14 09:57:17;;;;;;;31.35;15.15;;;358.60;1664.00;;;;;;4897144;29;20048;-60
2021/11/14 09:59:43;;;;;;;24.38;14.77;;;358.70;1664.00;;;;;;4896847;29;20462;-59
2021/11/14 10:02:10;;;;;;;23.17;15.98;;;358.70;1664.00;;;;;;4893995;29;20044;-61
2021/11/14 10:04:37;;;;;;;21.77;13.50;;;358.80;1638.40;;;;;;4895915;29;20104;-60
2021/11/14 10:07:12;;;;;;;23.10;13.98;;;358.80;1612.80;;;;;;4897935;29;20100;-64
2021/11/14 10:09:43;;;;;;;31.05;13.02;;;358.80;1612.80;;;;;;4897991;29;20046;-65
2021/11/14 10:12:20;;;;;;;26.92;14.60;;;358.80;1612.80;;;;;;4900563;29;20097;-59
2021/11/14 10:14:49;;;;;;;23.60;13.13;;;358.90;1612.80;;;;;;4896808;29;20040;-60
2021/11/14 10:17:27;;;;;;;19.10;13.73;;;358.80;1612.80;;;;;;4896823;29;20088;-60
2021/11/14 10:20:07;;;;;;;22.13;12.63;;;358.90;1612.80;;;;;;4894843;29;20025;-59
2021/11/14 10:22:35;;;;;;;18.13;12.90;;;358.90;1612.80;;;;;;4894431;29;20144;-60
2021/11/14 10:25:01;;;;;;;17.92;12.98;;;358.90;1612.80;;;;;;4897490;29;20501;-59
2021/11/14 10:27:29;;;;;;;27.40;15.30;;;358.90;1612.80;;;;;;4897799;29;20029;-60
2021/11/14 10:29:55;;;;;;;23.13;13.77;;;358.90;1638.40;;;;;;4901660;29;20059;-60
2021/11/14 10:32:21;;;;;;;24.73;15.10;;;359.00;1638.40;;;;;;4901468;29;20510;-59
2021/11/14 10:34:49;;;;;;;26.98;16.33;;;359.00;1612.80;;;;;;4901630;29;20064;-60
2021/11/14 10:37:18;;;;;;;25.13;14.50;;;359.10;1638.40;;;;;;4884206;29;20079;-60
2021/11/14 10:39:44;;;;;;;24.25;15.13;;;359.10;1638.40;;;;;;4901629;29;20033;-59
2021/11/14 10:42:15;;;;;;;28.73;14.27;;;359.10;1638.40;;;;;;4902228;29;20095;-60
2021/11/14 10:44:49;;;;;;;32.70;17.92;;;359.20;1638.40;;;;;;4902199;29;20349;-59
2021/11/14 10:47:22;;;;;;;27.55;17.00;;;359.30;1638.40;;;;;;4901988;29;20029;-60
2021/11/14 10:50:00;;;;;;;22.65;14.07;;;359.30;1638.40;;;;;;4902229;29;20057;-60
2021/11/14 10:52:31;;;;;;;26.27;14.82;;;384.10;1638.40;;;;;;4901876;29;20490;-60
2021/11/14 10:55:09;;;;;;;19.15;13.48;;;384.10;1612.80;;;;;;4901953;29;20486;-59
2021/11/14 10:57:37;;;;;;;19.27;12.93;;;384.20;1612.80;;;;;;4901968;29;20033;-59
2021/11/14 11:00:13;;;;;;;20.60;12.73;;;384.20;1612.80;;;;;;4901748;29;20432;-60
2021/11/14 11:02:42;;;;;;;19.25;13.05;;;384.20;1587.20;;;;;;4901158;29;20087;-60
2021/11/14 11:05:10;;;;;;;27.23;17.05;;;384.30;1587.20;;;;;;4901960;29;20108;-60
2021/11/14 11:07:35;;;;;;;44.38;23.65;;;384.30;1587.20;;;;;;4901993;29;20089;-59
2021/11/14 11:10:01;;;;;;;30.48;18.08;;;384.40;1561.60;;;;;;4902043;29;20029;-59
2021/11/14 11:12:28;;;;;;;26.77;17.33;;;384.40;1561.60;;;;;;4884955;29;20029;-59
2021/11/14 11:15:07;;;;;;;34.22;19.38;;;384.40;1561.60;;;;;;4901543;29;20033;-59
2021/11/14 11:17:47;;;;;;;29.58;17.20;;;384.50;1561.60;;;;;;4901369;29;20024;-59
2021/11/14 11:20:16;;;;;;;20.95;14.15;;;384.50;1561.60;;;;;;4901370;29;20037;-60
2021/11/14 11:23:07;;;;;;;30.88;16.27;;;384.50;1561.60;;;;;;4884170;29;20048;-60
2021/11/14 11:25:44;;;;;;;37.22;19.98;;;384.60;1536.00;;;;;;4901536;29;20040;-60
2021/11/14 11:28:20;;;;;;;31.55;19.48;;;384.70;1536.00;;;;;;4901359;29;20156;-59
2021/11/14 11:30:50;;;;;;;29.67;18.17;;;384.60;1536.00;;;;;;4901722;29;20031;-60
2021/11/14 11:33:17;;;;;;;30.48;18.65;;;384.70;1536.00;;;;;;4901145;29;20414;-59
2021/11/14 11:35:44;;;;;;;21.58;14.35;;;384.70;1561.60;;;;;;4901314;29;20041;-60
2021/11/14 11:38:10;;;;;;;21.83;13.32;;;384.60;1561.60;;;;;;4901094;29;20033;-60
2021/11/14 11:40:36;;;;;;;21.88;14.70;;;384.70;1561.60;;;;;;4900926;29;20060;-60
2021/11/14 11:43:03;;;;;;;28.70;16.67;;;384.70;1561.60;;;;;;4901306;29;20035;-60
2021/11/14 11:45:36;;;;;;;24.00;15.50;;;384.80;1536.00;;;;;;4900819;29;20036;-60
2021/11/14 11:48:04;;;;;;;28.42;15.43;;;384.80;1536.00;;;;;;4901354;29;20123;-59
2021/11/14 11:50:33;;;;;;;16.65;12.20;;;384.80;1536.00;;;;;;4901549;29;20379;-60
2021/11/14 11:52:59;;;;;;;22.02;12.70;;;384.80;1536.00;;;;;;4901590;29;20036;-60
2021/11/14 11:55:30;;;;;;;20.17;13.25;;;384.80;1536.00;;;;;;4901248;29;20033;-59
2021/11/14 11:58:19;;;;;;;20.85;13.18;;;384.80;1536.00;;;;;;4900830;29;20055;-60
2021/11/14 12:00:52;;;;;;;19.52;13.07;;;384.80;1536.00;;;;;;4900720;29;20048;-60